sensor_id;sensor_type;location;lat;lon;timestamp;P1;durP1;ratioP1;P2;durP2;ratioP2
15071;SDS011;7635;56.696;13.002;2023-04-24T00:04:06;5.25;;;3.63;;
15071;SDS011;7635;56.696;13.002;2023-04-24T00:10:38;5.35;;;3.55;;
15071;SDS011;7635;56.696;13.002;2023-04-24T00:23:32;5.07;;;3.47;;
15071;SDS011;7635;56.696;13.002;2023-04-24T00:26:24;5.10;;;4.07;;
15071;SDS011;7635;56.696;13.002;2023-04-24T00:32:45;4.22;;;3.53;;
15071;SDS011;7635;56.696;13.002;2023-04-24T00:35:33;5.03;;;3.83;;
15071;SDS011;7635;56.696;13.002;2023-04-24T00:38:35;4.88;;;3.28;;
15071;SDS011;7635;56.696;13.002;2023-04-24T00:41:27;5.10;;;3.63;;
15071;SDS011;7635;56.696;13.002;2023-04-24T00:44:17;4.57;;;3.65;;
15071;SDS011;7635;56.696;13.002;2023-04-24T00:47:11;4.82;;;3.53;;
15071;SDS011;7635;56.696;13.002;2023-04-24T00:49:49;4.53;;;2.80;;
15071;SDS011;7635;56.696;13.002;2023-04-24T00:53:00;5.18;;;3.50;;
15071;SDS011;7635;56.696;13.002;2023-04-24T00:55:39;4.88;;;3.55;;
15071;SDS011;7635;56.696;13.002;2023-04-24T00:58:34;4.70;;;3.50;;
15071;SDS011;7635;56.696;13.002;2023-04-24T01:04:35;4.00;;;3.05;;
15071;SDS011;7635;56.696;13.002;2023-04-24T01:07:30;5.25;;;3.67;;
15071;SDS011;7635;56.696;13.002;2023-04-24T01:10:27;5.47;;;3.92;;
15071;SDS011;7635;56.696;13.002;2023-04-24T01:13:14;4.82;;;3.80;;
15071;SDS011;7635;56.696;13.002;2023-04-24T01:16:16;4.65;;;3.67;;
15071;SDS011;7635;56.696;13.002;2023-04-24T01:18:54;4.32;;;3.22;;
15071;SDS011;7635;56.696;13.002;2023-04-24T01:21:30;4.97;;;3.65;;
15071;SDS011;7635;56.696;13.002;2023-04-24T01:24:24;5.53;;;3.47;;
15071;SDS011;7635;56.696;13.002;2023-04-24T01:27:01;4.53;;;3.22;;
15071;SDS011;7635;56.696;13.002;2023-04-24T01:29:38;5.03;;;3.70;;
15071;SDS011;7635;56.696;13.002;2023-04-24T01:32:35;4.03;;;3.08;;
15071;SDS011;7635;56.696;13.002;2023-04-24T01:35:35;4.68;;;3.63;;
15071;SDS011;7635;56.696;13.002;2023-04-24T01:38:12;6.95;;;3.95;;
15071;SDS011;7635;56.696;13.002;2023-04-24T01:41:14;5.32;;;3.63;;
15071;SDS011;7635;56.696;13.002;2023-04-24T01:44:22;5.03;;;3.72;;
15071;SDS011;7635;56.696;13.002;2023-04-24T01:47:12;6.32;;;3.20;;
15071;SDS011;7635;56.696;13.002;2023-04-24T01:50:19;3.72;;;3.30;;
15071;SDS011;7635;56.696;13.002;2023-04-24T01:53:12;4.65;;;3.45;;
15071;SDS011;7635;56.696;13.002;2023-04-24T01:56:17;5.05;;;3.35;;
15071;SDS011;7635;56.696;13.002;2023-04-24T01:59:19;5.13;;;3.40;;
15071;SDS011;7635;56.696;13.002;2023-04-24T02:02:09;3.95;;;3.30;;
15071;SDS011;7635;56.696;13.002;2023-04-24T02:04:53;4.63;;;3.42;;
15071;SDS011;7635;56.696;13.002;2023-04-24T02:07:42;5.75;;;3.95;;
15071;SDS011;7635;56.696;13.002;2023-04-24T02:10:23;5.53;;;3.70;;
15071;SDS011;7635;56.696;13.002;2023-04-24T02:13:14;5.30;;;3.22;;
15071;SDS011;7635;56.696;13.002;2023-04-24T02:16:11;4.93;;;3.83;;
15071;SDS011;7635;56.696;13.002;2023-04-24T02:19:06;5.40;;;3.83;;
15071;SDS011;7635;56.696;13.002;2023-04-24T02:22:11;6.10;;;3.38;;
15071;SDS011;7635;56.696;13.002;2023-04-24T02:25:23;4.28;;;3.85;;
15071;SDS011;7635;56.696;13.002;2023-04-24T02:28:08;6.63;;;4.28;;
15071;SDS011;7635;56.696;13.002;2023-04-24T02:33:58;9.32;;;4.10;;
15071;SDS011;7635;56.696;13.002;2023-04-24T02:39:34;3.65;;;3.17;;
15071;SDS011;7635;56.696;13.002;2023-04-24T02:42:09;5.30;;;3.58;;
15071;SDS011;7635;56.696;13.002;2023-04-24T02:44:46;4.22;;;3.63;;
15071;SDS011;7635;56.696;13.002;2023-04-24T02:48:01;4.63;;;3.55;;
15071;SDS011;7635;56.696;13.002;2023-04-24T02:50:51;4.45;;;3.55;;
15071;SDS011;7635;56.696;13.002;2023-04-24T02:57:14;6.60;;;4.55;;
15071;SDS011;7635;56.696;13.002;2023-04-24T03:00:14;9.05;;;4.85;;
15071;SDS011;7635;56.696;13.002;2023-04-24T03:02:54;5.70;;;3.53;;
15071;SDS011;7635;56.696;13.002;2023-04-24T03:05:54;4.45;;;3.72;;
15071;SDS011;7635;56.696;13.002;2023-04-24T03:08:40;5.63;;;3.20;;
15071;SDS011;7635;56.696;13.002;2023-04-24T03:11:19;3.97;;;3.38;;
15071;SDS011;7635;56.696;13.002;2023-04-24T03:14:14;4.28;;;2.97;;
15071;SDS011;7635;56.696;13.002;2023-04-24T03:16:50;5.15;;;3.88;;
15071;SDS011;7635;56.696;13.002;2023-04-24T03:22:59;6.57;;;4.05;;
15071;SDS011;7635;56.696;13.002;2023-04-24T03:25:33;4.57;;;3.50;;
15071;SDS011;7635;56.696;13.002;2023-04-24T03:28:22;4.95;;;3.88;;
15071;SDS011;7635;56.696;13.002;2023-04-24T03:31:05;7.20;;;3.42;;
15071;SDS011;7635;56.696;13.002;2023-04-24T03:34:10;7.07;;;3.65;;
15071;SDS011;7635;56.696;13.002;2023-04-24T03:36:45;4.70;;;3.35;;
15071;SDS011;7635;56.696;13.002;2023-04-24T03:39:27;4.32;;;3.17;;
15071;SDS011;7635;56.696;13.002;2023-04-24T03:42:17;5.82;;;3.92;;
15071;SDS011;7635;56.696;13.002;2023-04-24T03:47:58;6.28;;;3.83;;
15071;SDS011;7635;56.696;13.002;2023-04-24T03:51:10;5.13;;;3.88;;
15071;SDS011;7635;56.696;13.002;2023-04-24T03:53:44;5.05;;;3.40;;
15071;SDS011;7635;56.696;13.002;2023-04-24T03:56:33;4.72;;;3.80;;
15071;SDS011;7635;56.696;13.002;2023-04-24T03:59:18;4.75;;;3.55;;
15071;SDS011;7635;56.696;13.002;2023-04-24T04:02:01;5.13;;;3.42;;
15071;SDS011;7635;56.696;13.002;2023-04-24T04:04:47;5.20;;;3.55;;
15071;SDS011;7635;56.696;13.002;2023-04-24T04:07:26;4.57;;;3.53;;
15071;SDS011;7635;56.696;13.002;2023-04-24T04:10:22;5.53;;;4.15;;
15071;SDS011;7635;56.696;13.002;2023-04-24T04:13:16;4.63;;;3.53;;
15071;SDS011;7635;56.696;13.002;2023-04-24T04:16:08;4.78;;;3.45;;
15071;SDS011;7635;56.696;13.002;2023-04-24T04:18:46;4.70;;;3.30;;
15071;SDS011;7635;56.696;13.002;2023-04-24T04:21:39;5.80;;;3.53;;
15071;SDS011;7635;56.696;13.002;2023-04-24T04:25:36;4.55;;;3.15;;
15071;SDS011;7635;56.696;13.002;2023-04-24T04:27:46;4.70;;;3.88;;
15071;SDS011;7635;56.696;13.002;2023-04-24T04:30:26;5.22;;;3.70;;
15071;SDS011;7635;56.696;13.002;2023-04-24T04:36:20;4.45;;;3.40;;
15071;SDS011;7635;56.696;13.002;2023-04-24T04:38:59;5.30;;;3.78;;
15071;SDS011;7635;56.696;13.002;2023-04-24T04:42:05;6.30;;;3.58;;
15071;SDS011;7635;56.696;13.002;2023-04-24T04:44:45;4.75;;;3.80;;
15071;SDS011;7635;56.696;13.002;2023-04-24T04:47:24;5.30;;;3.65;;
15071;SDS011;7635;56.696;13.002;2023-04-24T04:50:07;5.70;;;4.03;;
15071;SDS011;7635;56.696;13.002;2023-04-24T04:53:07;4.03;;;3.50;;
15071;SDS011;7635;56.696;13.002;2023-04-24T04:55:48;6.15;;;3.30;;
15071;SDS011;7635;56.696;13.002;2023-04-24T04:58:25;5.00;;;3.38;;
15071;SDS011;7635;56.696;13.002;2023-04-24T05:04:41;4.72;;;3.45;;
15071;SDS011;7635;56.696;13.002;2023-04-24T05:07:37;4.93;;;3.70;;
15071;SDS011;7635;56.696;13.002;2023-04-24T05:10:13;3.70;;;3.15;;
15071;SDS011;7635;56.696;13.002;2023-04-24T05:16:40;5.30;;;3.80;;
15071;SDS011;7635;56.696;13.002;2023-04-24T05:19:47;4.57;;;3.50;;
15071;SDS011;7635;56.696;13.002;2023-04-24T05:22:41;5.82;;;3.58;;
15071;SDS011;7635;56.696;13.002;2023-04-24T05:25:15;5.03;;;3.45;;
15071;SDS011;7635;56.696;13.002;2023-04-24T05:27:52;6.13;;;3.85;;
15071;SDS011;7635;56.696;13.002;2023-04-24T05:30:29;4.65;;;3.45;;
15071;SDS011;7635;56.696;13.002;2023-04-24T05:33:37;5.88;;;3.58;;
15071;SDS011;7635;56.696;13.002;2023-04-24T05:36:21;6.32;;;3.65;;
15071;SDS011;7635;56.696;13.002;2023-04-24T05:39:01;4.82;;;3.78;;
15071;SDS011;7635;56.696;13.002;2023-04-24T05:41:37;5.25;;;4.15;;
15071;SDS011;7635;56.696;13.002;2023-04-24T05:44:29;5.38;;;3.83;;
15071;SDS011;7635;56.696;13.002;2023-04-24T05:47:17;5.28;;;4.00;;
15071;SDS011;7635;56.696;13.002;2023-04-24T05:50:02;5.07;;;3.35;;
15071;SDS011;7635;56.696;13.002;2023-04-24T05:52:37;5.40;;;3.50;;
15071;SDS011;7635;56.696;13.002;2023-04-24T05:55:14;3.78;;;3.42;;
15071;SDS011;7635;56.696;13.002;2023-04-24T05:57:50;6.43;;;3.85;;
15071;SDS011;7635;56.696;13.002;2023-04-24T06:00:23;6.30;;;4.00;;
15071;SDS011;7635;56.696;13.002;2023-04-24T06:03:14;4.40;;;3.10;;
15071;SDS011;7635;56.696;13.002;2023-04-24T06:05:44;5.13;;;3.90;;
15071;SDS011;7635;56.696;13.002;2023-04-24T06:08:13;4.85;;;3.38;;
15071;SDS011;7635;56.696;13.002;2023-04-24T06:10:59;4.53;;;3.28;;
15071;SDS011;7635;56.696;13.002;2023-04-24T06:13:32;3.70;;;3.15;;
15071;SDS011;7635;56.696;13.002;2023-04-24T06:16:00;3.92;;;3.53;;
15071;SDS011;7635;56.696;13.002;2023-04-24T06:38:39;5.18;;;3.40;;
15071;SDS011;7635;56.696;13.002;2023-04-24T06:41:17;4.57;;;3.28;;
15071;SDS011;7635;56.696;13.002;2023-04-24T06:43:47;3.88;;;2.92;;
15071;SDS011;7635;56.696;13.002;2023-04-24T06:46:23;6.30;;;3.95;;
15071;SDS011;7635;56.696;13.002;2023-04-24T06:49:07;6.22;;;3.75;;
15071;SDS011;7635;56.696;13.002;2023-04-24T06:51:51;5.32;;;3.53;;
15071;SDS011;7635;56.696;13.002;2023-04-24T06:54:48;5.72;;;3.72;;
15071;SDS011;7635;56.696;13.002;2023-04-24T06:57:29;3.95;;;2.97;;
15071;SDS011;7635;56.696;13.002;2023-04-24T07:00:16;4.10;;;3.22;;
15071;SDS011;7635;56.696;13.002;2023-04-24T07:02:57;3.97;;;3.35;;
15071;SDS011;7635;56.696;13.002;2023-04-24T07:06:00;3.85;;;3.08;;
15071;SDS011;7635;56.696;13.002;2023-04-24T07:08:35;7.22;;;4.30;;
15071;SDS011;7635;56.696;13.002;2023-04-24T07:11:23;6.93;;;3.50;;
15071;SDS011;7635;56.696;13.002;2023-04-24T07:14:39;5.60;;;3.47;;
15071;SDS011;7635;56.696;13.002;2023-04-24T07:20:23;5.68;;;4.43;;
15071;SDS011;7635;56.696;13.002;2023-04-24T07:23:02;5.07;;;3.42;;
15071;SDS011;7635;56.696;13.002;2023-04-24T07:29:16;5.00;;;3.85;;
15071;SDS011;7635;56.696;13.002;2023-04-24T07:31:58;6.32;;;4.70;;
15071;SDS011;7635;56.696;13.002;2023-04-24T07:34:31;4.47;;;3.22;;
15071;SDS011;7635;56.696;13.002;2023-04-24T07:44:24;4.43;;;3.45;;
15071;SDS011;7635;56.696;13.002;2023-04-24T07:46:53;5.70;;;4.32;;
15071;SDS011;7635;56.696;13.002;2023-04-24T07:49:40;5.78;;;4.65;;
15071;SDS011;7635;56.696;13.002;2023-04-24T07:52:29;1.80;;;1.63;;
15071;SDS011;7635;56.696;13.002;2023-04-24T07:55:01;5.20;;;3.53;;
15071;SDS011;7635;56.696;13.002;2023-04-24T08:01:10;4.38;;;3.03;;
15071;SDS011;7635;56.696;13.002;2023-04-24T08:03:46;5.85;;;3.13;;
15071;SDS011;7635;56.696;13.002;2023-04-24T08:06:19;4.85;;;3.72;;
15071;SDS011;7635;56.696;13.002;2023-04-24T08:11:56;5.15;;;4.22;;
15071;SDS011;7635;56.696;13.002;2023-04-24T08:14:42;4.97;;;3.65;;
15071;SDS011;7635;56.696;13.002;2023-04-24T08:17:34;5.60;;;3.88;;
15071;SDS011;7635;56.696;13.002;2023-04-24T08:20:03;4.95;;;3.15;;
15071;SDS011;7635;56.696;13.002;2023-04-24T08:22:37;3.83;;;2.95;;
15071;SDS011;7635;56.696;13.002;2023-04-24T08:25:09;4.45;;;3.53;;
15071;SDS011;7635;56.696;13.002;2023-04-24T08:27:48;4.72;;;3.60;;
15071;SDS011;7635;56.696;13.002;2023-04-24T08:30:22;5.78;;;3.63;;
15071;SDS011;7635;56.696;13.002;2023-04-24T08:33:02;5.88;;;3.58;;
15071;SDS011;7635;56.696;13.002;2023-04-24T08:35:37;6.13;;;4.00;;
15071;SDS011;7635;56.696;13.002;2023-04-24T08:38:12;6.47;;;3.08;;
15071;SDS011;7635;56.696;13.002;2023-04-24T08:40:50;4.25;;;3.35;;
15071;SDS011;7635;56.696;13.002;2023-04-24T08:46:35;4.10;;;3.28;;
15071;SDS011;7635;56.696;13.002;2023-04-24T08:49:08;6.05;;;4.22;;
15071;SDS011;7635;56.696;13.002;2023-04-24T08:51:39;5.95;;;4.25;;
15071;SDS011;7635;56.696;13.002;2023-04-24T08:54:18;6.38;;;3.60;;
15071;SDS011;7635;56.696;13.002;2023-04-24T08:56:54;5.68;;;4.07;;
15071;SDS011;7635;56.696;13.002;2023-04-24T08:59:36;5.03;;;3.42;;
15071;SDS011;7635;56.696;13.002;2023-04-24T09:02:11;5.88;;;3.97;;
15071;SDS011;7635;56.696;13.002;2023-04-24T09:04:41;4.15;;;3.40;;
15071;SDS011;7635;56.696;13.002;2023-04-24T09:07:14;5.68;;;4.63;;
15071;SDS011;7635;56.696;13.002;2023-04-24T09:09:47;7.70;;;4.10;;
15071;SDS011;7635;56.696;13.002;2023-04-24T09:12:25;5.18;;;3.67;;
15071;SDS011;7635;56.696;13.002;2023-04-24T09:15:04;4.60;;;3.55;;
15071;SDS011;7635;56.696;13.002;2023-04-24T09:17:51;6.65;;;4.47;;
15071;SDS011;7635;56.696;13.002;2023-04-24T09:20:26;8.20;;;4.30;;
15071;SDS011;7635;56.696;13.002;2023-04-24T09:23:03;6.60;;;4.47;;
15071;SDS011;7635;56.696;13.002;2023-04-24T09:25:41;4.68;;;3.40;;
15071;SDS011;7635;56.696;13.002;2023-04-24T09:28:18;7.38;;;5.20;;
15071;SDS011;7635;56.696;13.002;2023-04-24T09:31:20;5.45;;;3.85;;
15071;SDS011;7635;56.696;13.002;2023-04-24T09:33:55;6.00;;;4.20;;
15071;SDS011;7635;56.696;13.002;2023-04-24T09:36:32;6.28;;;4.18;;
15071;SDS011;7635;56.696;13.002;2023-04-24T09:39:24;7.15;;;4.93;;
15071;SDS011;7635;56.696;13.002;2023-04-24T09:42:00;7.07;;;4.10;;
15071;SDS011;7635;56.696;13.002;2023-04-24T09:44:41;4.88;;;3.67;;
15071;SDS011;7635;56.696;13.002;2023-04-24T09:50:12;2.60;;;2.28;;
15071;SDS011;7635;56.696;13.002;2023-04-24T09:53:05;4.28;;;3.33;;
15071;SDS011;7635;56.696;13.002;2023-04-24T09:55:39;5.50;;;3.40;;
15071;SDS011;7635;56.696;13.002;2023-04-24T09:58:31;6.00;;;4.05;;
15071;SDS011;7635;56.696;13.002;2023-04-24T10:01:15;7.88;;;4.30;;
15071;SDS011;7635;56.696;13.002;2023-04-24T10:03:53;5.25;;;3.70;;
15071;SDS011;7635;56.696;13.002;2023-04-24T10:06:39;6.63;;;4.80;;
15071;SDS011;7635;56.696;13.002;2023-04-24T10:12:36;5.40;;;4.13;;
15071;SDS011;7635;56.696;13.002;2023-04-24T10:15:07;3.97;;;3.22;;
15071;SDS011;7635;56.696;13.002;2023-04-24T10:17:46;6.97;;;4.00;;
15071;SDS011;7635;56.696;13.002;2023-04-24T10:24:00;4.53;;;3.67;;
15071;SDS011;7635;56.696;13.002;2023-04-24T10:26:41;4.43;;;3.53;;
15071;SDS011;7635;56.696;13.002;2023-04-24T10:29:18;4.45;;;3.42;;
15071;SDS011;7635;56.696;13.002;2023-04-24T10:32:25;4.33;;;2.83;;
15071;SDS011;7635;56.696;13.002;2023-04-24T10:34:48;4.75;;;3.60;;
15071;SDS011;7635;56.696;13.002;2023-04-24T10:37:50;4.78;;;4.05;;
15071;SDS011;7635;56.696;13.002;2023-04-24T10:40:36;4.63;;;3.00;;
15071;SDS011;7635;56.696;13.002;2023-04-24T10:46:52;3.40;;;3.10;;
15071;SDS011;7635;56.696;13.002;2023-04-24T10:49:38;3.55;;;2.90;;
15071;SDS011;7635;56.696;13.002;2023-04-24T10:52:08;4.70;;;3.40;;
15071;SDS011;7635;56.696;13.002;2023-04-24T10:54:51;4.10;;;3.00;;
15071;SDS011;7635;56.696;13.002;2023-04-24T10:57:34;4.13;;;3.28;;
15071;SDS011;7635;56.696;13.002;2023-04-24T11:00:19;6.47;;;4.07;;
15071;SDS011;7635;56.696;13.002;2023-04-24T11:03:28;4.40;;;3.05;;
15071;SDS011;7635;56.696;13.002;2023-04-24T11:09:04;3.55;;;3.20;;
15071;SDS011;7635;56.696;13.002;2023-04-24T11:11:53;4.22;;;2.92;;
15071;SDS011;7635;56.696;13.002;2023-04-24T11:14:32;4.15;;;3.50;;
15071;SDS011;7635;56.696;13.002;2023-04-24T11:17:44;5.15;;;3.03;;
15071;SDS011;7635;56.696;13.002;2023-04-24T11:20:23;5.45;;;4.22;;
15071;SDS011;7635;56.696;13.002;2023-04-24T11:22:58;3.58;;;2.78;;
15071;SDS011;7635;56.696;13.002;2023-04-24T11:25:39;3.97;;;3.22;;
15071;SDS011;7635;56.696;13.002;2023-04-24T11:28:18;4.43;;;3.63;;
15071;SDS011;7635;56.696;13.002;2023-04-24T11:34:23;3.88;;;2.85;;
15071;SDS011;7635;56.696;13.002;2023-04-24T11:37:04;4.45;;;3.22;;
15071;SDS011;7635;56.696;13.002;2023-04-24T11:39:36;3.03;;;2.72;;
15071;SDS011;7635;56.696;13.002;2023-04-24T11:42:14;2.78;;;2.58;;
15071;SDS011;7635;56.696;13.002;2023-04-24T11:44:47;4.70;;;3.35;;
15071;SDS011;7635;56.696;13.002;2023-04-24T11:47:23;4.45;;;2.83;;
15071;SDS011;7635;56.696;13.002;2023-04-24T11:50:03;5.07;;;3.20;;
15071;SDS011;7635;56.696;13.002;2023-04-24T11:52:38;5.13;;;3.25;;
15071;SDS011;7635;56.696;13.002;2023-04-24T11:55:22;3.65;;;3.00;;
15071;SDS011;7635;56.696;13.002;2023-04-24T12:03:38;4.78;;;3.10;;
15071;SDS011;7635;56.696;13.002;2023-04-24T12:06:11;4.15;;;1.92;;
15071;SDS011;7635;56.696;13.002;2023-04-24T12:08:47;3.78;;;2.55;;
15071;SDS011;7635;56.696;13.002;2023-04-24T12:11:23;4.47;;;2.95;;
15071;SDS011;7635;56.696;13.002;2023-04-24T12:13:54;3.25;;;2.78;;
15071;SDS011;7635;56.696;13.002;2023-04-24T12:16:38;4.72;;;2.45;;
15071;SDS011;7635;56.696;13.002;2023-04-24T12:19:20;5.15;;;3.60;;
15071;SDS011;7635;56.696;13.002;2023-04-24T12:22:00;3.47;;;2.88;;
15071;SDS011;7635;56.696;13.002;2023-04-24T12:24:33;2.17;;;2.05;;
15071;SDS011;7635;56.696;13.002;2023-04-24T12:27:21;4.70;;;2.63;;
15071;SDS011;7635;56.696;13.002;2023-04-24T12:30:01;4.47;;;2.80;;
15071;SDS011;7635;56.696;13.002;2023-04-24T12:32:46;3.47;;;2.33;;
15071;SDS011;7635;56.696;13.002;2023-04-24T12:35:28;3.45;;;2.70;;
15071;SDS011;7635;56.696;13.002;2023-04-24T12:38:35;4.22;;;3.30;;
15071;SDS011;7635;56.696;13.002;2023-04-24T12:41:15;2.78;;;2.58;;
15071;SDS011;7635;56.696;13.002;2023-04-24T12:43:53;2.60;;;2.17;;
15071;SDS011;7635;56.696;13.002;2023-04-24T12:46:47;2.78;;;2.58;;
15071;SDS011;7635;56.696;13.002;2023-04-24T12:49:24;2.28;;;2.08;;
15071;SDS011;7635;56.696;13.002;2023-04-24T12:52:29;2.35;;;2.03;;
15071;SDS011;7635;56.696;13.002;2023-04-24T12:55:03;4.28;;;2.45;;
15071;SDS011;7635;56.696;13.002;2023-04-24T13:01:14;2.55;;;2.25;;
15071;SDS011;7635;56.696;13.002;2023-04-24T13:03:43;1.50;;;1.40;;
15071;SDS011;7635;56.696;13.002;2023-04-24T13:06:18;2.50;;;2.03;;
15071;SDS011;7635;56.696;13.002;2023-04-24T13:08:46;2.58;;;2.38;;
15071;SDS011;7635;56.696;13.002;2023-04-24T13:11:17;2.65;;;1.88;;
15071;SDS011;7635;56.696;13.002;2023-04-24T13:13:56;3.03;;;2.28;;
15071;SDS011;7635;56.696;13.002;2023-04-24T13:16:27;1.92;;;1.83;;
15071;SDS011;7635;56.696;13.002;2023-04-24T13:19:00;2.67;;;2.30;;
15071;SDS011;7635;56.696;13.002;2023-04-24T13:21:33;3.35;;;2.72;;
15071;SDS011;7635;56.696;13.002;2023-04-24T13:24:06;4.50;;;2.17;;
15071;SDS011;7635;56.696;13.002;2023-04-24T13:26:53;4.68;;;2.83;;
15071;SDS011;7635;56.696;13.002;2023-04-24T13:29:37;5.45;;;3.10;;
15071;SDS011;7635;56.696;13.002;2023-04-24T13:32:13;4.20;;;2.80;;
15071;SDS011;7635;56.696;13.002;2023-04-24T13:34:50;3.60;;;2.63;;
15071;SDS011;7635;56.696;13.002;2023-04-24T13:37:18;3.05;;;2.75;;
15071;SDS011;7635;56.696;13.002;2023-04-24T13:40:01;2.17;;;1.98;;
15071;SDS011;7635;56.696;13.002;2023-04-24T13:43:02;3.78;;;3.05;;
15071;SDS011;7635;56.696;13.002;2023-04-24T13:45:52;3.63;;;2.90;;
15071;SDS011;7635;56.696;13.002;2023-04-24T13:48:34;2.28;;;1.83;;
15071;SDS011;7635;56.696;13.002;2023-04-24T13:51:49;3.35;;;2.30;;
15071;SDS011;7635;56.696;13.002;2023-04-24T13:54:46;3.55;;;2.60;;
15071;SDS011;7635;56.696;13.002;2023-04-24T13:57:22;3.15;;;2.17;;
15071;SDS011;7635;56.696;13.002;2023-04-24T14:00:03;3.33;;;2.70;;
15071;SDS011;7635;56.696;13.002;2023-04-24T14:02:38;3.03;;;2.08;;
15071;SDS011;7635;56.696;13.002;2023-04-24T14:05:13;3.50;;;2.50;;
15071;SDS011;7635;56.696;13.002;2023-04-24T14:07:47;3.92;;;2.63;;
15071;SDS011;7635;56.696;13.002;2023-04-24T14:10:33;2.03;;;1.90;;
15071;SDS011;7635;56.696;13.002;2023-04-24T14:13:01;3.83;;;2.58;;
15071;SDS011;7635;56.696;13.002;2023-04-24T14:15:29;2.13;;;1.95;;
15071;SDS011;7635;56.696;13.002;2023-04-24T14:17:57;3.60;;;2.47;;
15071;SDS011;7635;56.696;13.002;2023-04-24T14:20:40;4.22;;;2.50;;
15071;SDS011;7635;56.696;13.002;2023-04-24T14:23:19;1.48;;;1.38;;
15071;SDS011;7635;56.696;13.002;2023-04-24T14:29:37;2.53;;;2.17;;
15071;SDS011;7635;56.696;13.002;2023-04-24T14:32:11;2.65;;;2.30;;
15071;SDS011;7635;56.696;13.002;2023-04-24T14:34:42;2.63;;;2.40;;
15071;SDS011;7635;56.696;13.002;2023-04-24T14:37:14;2.33;;;2.13;;
15071;SDS011;7635;56.696;13.002;2023-04-24T14:39:41;2.90;;;2.60;;
15071;SDS011;7635;56.696;13.002;2023-04-24T14:42:14;2.35;;;1.92;;
15071;SDS011;7635;56.696;13.002;2023-04-24T14:44:59;2.83;;;2.63;;
15071;SDS011;7635;56.696;13.002;2023-04-24T14:47:36;2.85;;;2.13;;
15071;SDS011;7635;56.696;13.002;2023-04-24T14:50:18;1.95;;;1.80;;
15071;SDS011;7635;56.696;13.002;2023-04-24T14:52:54;2.80;;;2.20;;
15071;SDS011;7635;56.696;13.002;2023-04-24T14:55:27;1.98;;;1.88;;
15071;SDS011;7635;56.696;13.002;2023-04-24T14:58:02;2.78;;;2.50;;
15071;SDS011;7635;56.696;13.002;2023-04-24T15:00:32;2.53;;;2.08;;
15071;SDS011;7635;56.696;13.002;2023-04-24T15:03:22;2.97;;;2.03;;
15071;SDS011;7635;56.696;13.002;2023-04-24T15:05:56;3.13;;;2.20;;
15071;SDS011;7635;56.696;13.002;2023-04-24T15:08:39;1.90;;;1.80;;
15071;SDS011;7635;56.696;13.002;2023-04-24T15:11:07;2.60;;;2.00;;
15071;SDS011;7635;56.696;13.002;2023-04-24T15:13:43;2.30;;;2.10;;
15071;SDS011;7635;56.696;13.002;2023-04-24T15:16:27;2.42;;;2.08;;
15071;SDS011;7635;56.696;13.002;2023-04-24T15:19:11;2.17;;;1.92;;
15071;SDS011;7635;56.696;13.002;2023-04-24T15:21:44;2.40;;;1.92;;
15071;SDS011;7635;56.696;13.002;2023-04-24T15:24:31;2.10;;;1.70;;
15071;SDS011;7635;56.696;13.002;2023-04-24T15:27:03;2.08;;;1.88;;
15071;SDS011;7635;56.696;13.002;2023-04-24T15:29:35;2.13;;;1.92;;
15071;SDS011;7635;56.696;13.002;2023-04-24T15:32:27;2.42;;;2.00;;
15071;SDS011;7635;56.696;13.002;2023-04-24T15:35:03;2.53;;;1.90;;
15071;SDS011;7635;56.696;13.002;2023-04-24T15:37:39;2.13;;;1.92;;
15071;SDS011;7635;56.696;13.002;2023-04-24T15:40:09;2.45;;;2.22;;
15071;SDS011;7635;56.696;13.002;2023-04-24T15:42:45;2.63;;;1.95;;
15071;SDS011;7635;56.696;13.002;2023-04-24T15:45:17;2.25;;;1.83;;
15071;SDS011;7635;56.696;13.002;2023-04-24T15:47:51;2.20;;;2.00;;
15071;SDS011;7635;56.696;13.002;2023-04-24T15:50:28;1.90;;;1.77;;
15071;SDS011;7635;56.696;13.002;2023-04-24T15:53:25;2.28;;;1.98;;
15071;SDS011;7635;56.696;13.002;2023-04-24T15:56:03;3.65;;;2.38;;
15071;SDS011;7635;56.696;13.002;2023-04-24T15:58:40;2.20;;;1.83;;
15071;SDS011;7635;56.696;13.002;2023-04-24T16:02:01;2.25;;;1.70;;
15071;SDS011;7635;56.696;13.002;2023-04-24T16:04:31;3.13;;;2.58;;
15071;SDS011;7635;56.696;13.002;2023-04-24T16:07:22;3.80;;;2.40;;
15071;SDS011;7635;56.696;13.002;2023-04-24T16:10:02;3.40;;;2.25;;
15071;SDS011;7635;56.696;13.002;2023-04-24T16:12:34;3.38;;;2.25;;
15071;SDS011;7635;56.696;13.002;2023-04-24T16:15:01;4.72;;;2.80;;
15071;SDS011;7635;56.696;13.002;2023-04-24T16:17:32;2.55;;;2.17;;
15071;SDS011;7635;56.696;13.002;2023-04-24T16:20:09;2.30;;;2.10;;
15071;SDS011;7635;56.696;13.002;2023-04-24T16:22:37;1.75;;;1.63;;
15071;SDS011;7635;56.696;13.002;2023-04-24T16:25:10;2.70;;;2.08;;
15071;SDS011;7635;56.696;13.002;2023-04-24T16:27:49;2.20;;;2.00;;
15071;SDS011;7635;56.696;13.002;2023-04-24T16:30:19;2.22;;;2.03;;
15071;SDS011;7635;56.696;13.002;2023-04-24T16:32:52;3.20;;;2.40;;
15071;SDS011;7635;56.696;13.002;2023-04-24T16:35:20;2.63;;;2.00;;
15071;SDS011;7635;56.696;13.002;2023-04-24T16:38:19;4.57;;;2.33;;
15071;SDS011;7635;56.696;13.002;2023-04-24T16:41:10;2.58;;;2.05;;
15071;SDS011;7635;56.696;13.002;2023-04-24T16:43:45;2.60;;;2.05;;
15071;SDS011;7635;56.696;13.002;2023-04-24T16:46:15;2.60;;;2.28;;
15071;SDS011;7635;56.696;13.002;2023-04-24T16:48:45;2.17;;;1.90;;
15071;SDS011;7635;56.696;13.002;2023-04-24T16:51:21;3.40;;;2.33;;
15071;SDS011;7635;56.696;13.002;2023-04-24T16:56:32;2.53;;;2.00;;
15071;SDS011;7635;56.696;13.002;2023-04-24T16:59:01;3.00;;;2.53;;
15071;SDS011;7635;56.696;13.002;2023-04-24T17:01:34;2.55;;;1.95;;
15071;SDS011;7635;56.696;13.002;2023-04-24T17:04:04;4.50;;;2.20;;
15071;SDS011;7635;56.696;13.002;2023-04-24T17:06:32;2.40;;;2.15;;
15071;SDS011;7635;56.696;13.002;2023-04-24T17:09:07;3.65;;;2.05;;
15071;SDS011;7635;56.696;13.002;2023-04-24T17:11:36;3.58;;;2.53;;
15071;SDS011;7635;56.696;13.002;2023-04-24T17:14:08;2.15;;;1.95;;
15071;SDS011;7635;56.696;13.002;2023-04-24T17:16:35;3.08;;;2.08;;
15071;SDS011;7635;56.696;13.002;2023-04-24T17:19:11;2.67;;;1.98;;
15071;SDS011;7635;56.696;13.002;2023-04-24T17:21:41;2.10;;;1.90;;
15071;SDS011;7635;56.696;13.002;2023-04-24T17:24:14;2.13;;;1.92;;
15071;SDS011;7635;56.696;13.002;2023-04-24T17:26:42;2.47;;;1.90;;
15071;SDS011;7635;56.696;13.002;2023-04-24T17:29:14;2.05;;;1.83;;
15071;SDS011;7635;56.696;13.002;2023-04-24T17:31:46;2.33;;;2.03;;
15071;SDS011;7635;56.696;13.002;2023-04-24T17:34:17;2.20;;;1.80;;
15071;SDS011;7635;56.696;13.002;2023-04-24T17:36:45;1.80;;;1.70;;
15071;SDS011;7635;56.696;13.002;2023-04-24T17:39:17;2.05;;;1.77;;
15071;SDS011;7635;56.696;13.002;2023-04-24T17:41:45;2.10;;;1.92;;
15071;SDS011;7635;56.696;13.002;2023-04-24T17:44:14;2.83;;;2.30;;
15071;SDS011;7635;56.696;13.002;2023-04-24T17:47:18;3.47;;;2.20;;
15071;SDS011;7635;56.696;13.002;2023-04-24T17:49:37;2.30;;;2.10;;
15071;SDS011;7635;56.696;13.002;2023-04-24T17:52:08;2.35;;;2.15;;
15071;SDS011;7635;56.696;13.002;2023-04-24T17:54:40;2.53;;;2.00;;
15071;SDS011;7635;56.696;13.002;2023-04-24T17:57:08;4.15;;;2.03;;
15071;SDS011;7635;56.696;13.002;2023-04-24T17:59:36;2.60;;;2.22;;
15071;SDS011;7635;56.696;13.002;2023-04-24T18:02:18;2.63;;;2.42;;
15071;SDS011;7635;56.696;13.002;2023-04-24T18:08:18;2.10;;;1.90;;
15071;SDS011;7635;56.696;13.002;2023-04-24T18:51:24;2.53;;;2.33;;
15071;SDS011;7635;56.696;13.002;2023-04-24T18:54:34;2.17;;;1.98;;
15071;SDS011;7635;56.696;13.002;2023-04-24T19:00:21;3.08;;;2.45;;
15071;SDS011;7635;56.696;13.002;2023-04-24T19:03:00;2.90;;;2.60;;
15071;SDS011;7635;56.696;13.002;2023-04-24T19:09:03;2.70;;;2.40;;
15071;SDS011;7635;56.696;13.002;2023-04-24T19:15:24;5.43;;;3.55;;
15071;SDS011;7635;56.696;13.002;2023-04-24T19:18:27;2.78;;;2.45;;